Time;durP1;ratioP1;P1;durP2;ratioP2;P2;SDS_P1;SDS_P2;PMS_P1;PMS_P2;Temp;Humidity;BMP_temperature;BMP_pressure;BME280_temperature;BME280_humidity;BME280_pressure;Samples;Min_cycle;Max_cycle;Signal;HPM_P1;HPM_P2
2023/03/09 00:00:48;;;;;;;;;;;8.70;99.90;;;8.63;100.00;95244.00;4993067;28;1477;-80
2023/03/09 00:03:18;;;;;;;;;;;8.70;99.90;;;8.59;100.00;95239.97;4997995;28;1460;-80
2023/03/09 00:05:53;;;;;;;;;;;8.70;99.90;;;8.54;100.00;95232.53;4994615;28;1355;-80
2023/03/09 00:08:20;;;;;;;;;;;8.60;99.90;;;8.51;100.00;95219.84;4975426;28;1991;-79
2023/03/09 00:10:51;;;;;;;;;;;8.60;99.90;;;8.54;100.00;95229.97;4992302;28;1496;-80
2023/03/09 00:13:21;;;;;;;;;;;8.50;99.90;;;8.45;100.00;95230.63;4990904;28;1791;-80
2023/03/09 00:15:50;;;;;;;;;;;8.50;99.90;;;8.44;100.00;95223.81;4993279;28;1390;-79
2023/03/09 00:18:18;;;;;;;;;;;8.50;99.90;;;8.36;100.00;95246.75;4992044;28;1552;-79
2023/03/09 00:20:46;;;;;;;;;;;8.50;99.90;;;8.38;100.00;95232.78;4994558;28;1513;-80
2023/03/09 00:23:13;;;;;;;;;;;8.50;99.90;;;8.27;100.00;95255.97;4979103;28;1467;-80
2023/03/09 00:25:40;;;;;;;;;;;8.40;99.90;;;8.32;100.00;95240.16;4980546;28;1434;-80
2023/03/09 00:28:06;;;;;;;;;;;8.40;99.90;;;8.27;100.00;95250.81;4966363;28;1958;-79
2023/03/09 00:30:35;;;;;;;;;;;8.40;99.90;;;8.27;100.00;95234.50;4992879;28;1757;-80
2023/03/09 00:33:01;;;;;;;;;;;8.40;99.90;;;8.25;100.00;95247.50;4996057;28;1425;-80
2023/03/09 00:35:29;;;;;;;;;;;8.40;99.90;;;8.19;100.00;95222.13;4995776;28;1490;-80
2023/03/09 00:37:56;;;;;;;;;;;8.30;99.90;;;8.26;100.00;95231.09;4990955;28;1406;-80
2023/03/09 00:40:23;;;;;;;;;;;8.30;99.90;;;8.22;100.00;95242.56;4995346;28;1339;-80
2023/03/09 00:42:50;;;;;;;;;;;8.30;99.90;;;8.24;100.00;95243.28;4993178;28;1376;-79
2023/03/09 00:45:17;;;;;;;;;;;8.30;99.90;;;8.32;100.00;95225.47;4991647;28;2074;-80
2023/03/09 00:47:45;;;;;;;;;;;8.40;99.90;;;8.12;100.00;95242.41;4992857;28;1879;-79
2023/03/09 00:50:12;;;;;;;;;;;8.30;99.90;;;8.32;100.00;95235.81;4991322;28;1478;-79
2023/03/09 00:52:39;;;;;;;;;;;8.40;99.90;;;8.30;100.00;95229.09;4994294;28;1395;-81
2023/03/09 00:55:06;;;;;;;;;;;8.30;99.90;;;8.43;100.00;95227.31;4995573;28;1454;-80
2023/03/09 00:57:34;;;;;;;;;;;8.30;99.90;;;8.37;100.00;95225.16;4989474;28;1385;-80
2023/03/09 01:00:01;;;;;;;;;;;8.30;99.90;;;8.47;100.00;95231.34;5006570;28;1649;-79
2023/03/09 01:02:28;;;;;;;;;;;8.30;99.90;;;8.40;100.00;95237.88;4995309;28;1487;-79
2023/03/09 01:04:55;;;;;;;;;;;8.30;99.90;;;8.46;100.00;95227.13;4992765;28;1765;-79
2023/03/09 01:07:22;;;;;;;;;;;8.40;99.90;;;8.55;100.00;95230.78;4991633;28;1612;-80
2023/03/09 01:09:50;;;;;;;;;;;8.50;99.90;;;8.55;100.00;95231.63;4996016;28;1891;-80
2023/03/09 01:12:17;;;;;;;;;;;8.50;99.90;;;8.64;100.00;95232.69;4993253;28;1916;-80
2023/03/09 01:14:43;;;;;;;;;;;8.50;99.90;;;8.57;100.00;95259.94;4997771;28;1518;-80
2023/03/09 01:17:11;;;;;;;;;;;8.50;99.90;;;8.66;100.00;95248.13;5009008;28;1459;-80
2023/03/09 01:19:38;;;;;;;;;;;8.60;99.90;;;8.61;100.00;95234.69;4994618;28;1578;-79
2023/03/09 01:22:05;;;;;;;;;;;8.60;99.90;;;8.62;100.00;95270.81;4983484;28;1387;-80
2023/03/09 01:24:32;;;;;;;;;;;8.60;99.90;;;8.61;100.00;95245.88;4999290;28;1466;-80
2023/03/09 01:26:59;;;;;;;;;;;8.60;99.90;;;8.64;100.00;95237.06;4992106;28;1474;-80
2023/03/09 01:29:26;;;;;;;;;;;8.60;99.90;;;8.67;100.00;95276.47;4993373;28;1902;-80
2023/03/09 01:31:53;;;;;;;;;;;8.70;99.90;;;8.63;100.00;95272.44;4994792;28;1419;-80
2023/03/09 01:34:20;;;;;;;;;;;8.70;99.90;;;8.47;100.00;95295.16;4995555;28;1403;-80
2023/03/09 01:36:47;;;;;;;;;;;8.70;99.90;;;8.62;100.00;95280.28;4994669;28;1567;-80
2023/03/09 01:39:14;;;;;;;;;;;8.70;99.90;;;8.52;100.00;95327.50;4987498;28;1643;-80
2023/03/09 01:41:42;;;;;;;;;;;8.60;99.90;;;8.64;100.00;95325.78;4995677;28;1841;-79
2023/03/09 01:44:14;;;;;;;;;;;8.70;99.90;;;8.57;100.00;95340.09;4998467;28;1614;-80
2023/03/09 01:46:47;;;;;;;;;;;8.70;99.90;;;8.67;100.00;95327.38;4996337;28;1469;-80
2023/03/09 01:49:18;;;;;;;;;;;8.70;99.90;;;8.58;100.00;95367.63;4991252;28;1922;-80
2023/03/09 01:51:47;;;;;;;;;;;8.70;99.90;;;8.55;100.00;95340.22;4989788;28;1634;-79
2023/03/09 01:54:45;;;;;;;;;;;8.70;99.90;;;8.54;100.00;95343.72;4988817;28;1407;-80
2023/03/09 01:57:51;;;;;;;;;;;8.70;99.90;;;8.46;100.00;95343.47;4992472;28;1409;-80
2023/03/09 02:00:20;;;;;;;;;;;8.60;99.90;;;8.35;100.00;95333.81;4989891;28;1403;-80
2023/03/09 02:03:02;;;;;;;;;;;8.50;99.90;;;8.33;100.00;95342.63;4988351;28;1448;-79
2023/03/09 02:05:43;;;;;;;;;;;8.50;99.90;;;8.27;100.00;95335.28;4986268;28;1410;-80
2023/03/09 02:08:10;;;;;;;;;;;8.40;99.90;;;8.18;100.00;95354.81;4985152;28;1985;-79
2023/03/09 02:10:43;;;;;;;;;;;8.30;99.90;;;8.13;100.00;95357.72;4986887;28;1439;-79
2023/03/09 02:13:14;;;;;;;;;;;8.30;99.90;;;8.13;100.00;95328.47;4972321;28;1671;-79
2023/03/09 02:15:41;;;;;;;;;;;8.30;99.90;;;8.10;100.00;95376.03;5000805;28;1629;-80
2023/03/09 02:18:08;;;;;;;;;;;8.20;99.90;;;8.01;100.00;95332.75;4969717;28;1394;-79
2023/03/09 02:20:51;;;;;;;;;;;8.30;99.90;;;8.03;100.00;95353.28;4986883;28;1646;-80
2023/03/09 02:23:28;;;;;;;;;;;8.20;99.90;;;8.01;100.00;95368.09;4987781;28;1845;-79
2023/03/09 02:26:09;;;;;;;;;;;8.20;99.90;;;7.98;100.00;95387.19;4989407;28;1485;-80
2023/03/09 02:28:36;;;;;;;;;;;8.10;99.90;;;7.88;100.00;95427.50;4987211;28;1988;-80
2023/03/09 02:31:04;;;;;;;;;;;8.10;99.90;;;7.86;100.00;95437.91;4984608;28;1565;-80
2023/03/09 02:33:31;;;;;;;;;;;8.10;99.90;;;7.84;100.00;95446.69;4968939;28;1701;-79
2023/03/09 02:35:59;;;;;;;;;;;8.10;99.90;;;7.85;100.00;95441.44;4990186;28;1646;-80
2023/03/09 02:38:27;;;;;;;;;;;8.10;99.90;;;7.81;100.00;95472.72;4985962;28;1541;-80
2023/03/09 02:40:57;;;;;;;;;;;8.00;99.90;;;7.78;100.00;95460.00;4978839;28;1801;-78
2023/03/09 02:43:32;;;;;;;;;;;8.10;99.90;;;7.83;100.00;95442.47;4978012;28;1495;-79
2023/03/09 02:45:59;;;;;;;;;;;8.00;99.90;;;7.83;100.00;95455.38;4991174;28;1435;-79
2023/03/09 02:48:26;;;;;;;;;;;8.00;99.90;;;7.81;100.00;95462.41;4995121;28;1887;-79
2023/03/09 02:50:53;;;;;;;;;;;8.00;99.90;;;7.84;100.00;95469.94;4990741;28;1577;-79
2023/03/09 02:53:20;;;;;;;;;;;8.00;99.90;;;7.83;100.00;95466.53;4987401;28;1578;-79
2023/03/09 02:55:47;;;;;;;;;;;8.00;99.90;;;7.77;100.00;95466.94;4986831;28;1381;-80
2023/03/09 02:58:14;;;;;;;;;;;8.00;99.90;;;7.79;100.00;95479.75;4987762;28;1795;-79
2023/03/09 03:00:41;;;;;;;;;;;7.90;99.90;;;7.83;100.00;95483.78;4995548;28;1629;-79
2023/03/09 03:03:09;;;;;;;;;;;8.00;99.90;;;7.81;100.00;95498.56;4978518;28;1753;-79
2023/03/09 03:05:36;;;;;;;;;;;8.00;99.90;;;7.78;100.00;95484.09;4996347;28;1456;-80
2023/03/09 03:08:03;;;;;;;;;;;8.00;99.90;;;7.78;100.00;95514.22;4992776;28;1993;-79
2023/03/09 03:10:30;;;;;;;;;;;8.10;99.90;;;7.81;100.00;95485.66;4992082;28;1396;-80
2023/03/09 03:12:57;;;;;;;;;;;8.10;99.90;;;7.87;100.00;95537.72;4991975;28;1752;-79
2023/03/09 03:15:24;;;;;;;;;;;8.10;99.90;;;7.89;100.00;95533.28;4995640;28;1481;-80
2023/03/09 03:17:51;;;;;;;;;;;8.10;99.90;;;7.83;100.00;95535.44;5009628;28;1722;-80
2023/03/09 03:20:18;;;;;;;;;;;8.10;99.90;;;7.84;100.00;95530.16;4993270;28;1402;-79
2023/03/09 03:22:45;;;;;;;;;;;8.20;99.90;;;7.89;100.00;95522.97;4996770;28;1536;-80
2023/03/09 03:25:13;;;;;;;;;;;8.20;99.90;;;7.90;100.00;95534.94;4989698;28;1462;-80
2023/03/09 03:27:40;;;;;;;;;;;8.20;99.90;;;7.86;100.00;95537.81;4992152;28;1745;-80
2023/03/09 03:30:08;;;;;;;;;;;8.30;99.90;;;7.90;100.00;95534.13;4993372;28;2014;-79
2023/03/09 03:32:35;;;;;;;;;;;8.30;99.90;;;7.90;100.00;95568.53;4988969;28;1412;-80
2023/03/09 03:35:03;;;;;;;;;;;8.40;99.90;;;7.91;100.00;95559.00;4992833;28;1585;-79
2023/03/09 03:37:30;;;;;;;;;;;8.40;99.90;;;7.93;100.00;95619.97;4992215;28;1449;-80
2023/03/09 03:39:58;;;;;;;;;;;8.30;99.90;;;7.85;100.00;95570.56;4981733;28;1627;-80
2023/03/09 03:42:25;;;;;;;;;;;8.30;99.90;;;7.79;100.00;95559.81;4994150;28;1646;-80
2023/03/09 03:44:52;;;;;;;;;;;8.10;99.90;;;7.82;100.00;95594.00;4990963;28;1451;-80
2023/03/09 03:47:19;;;;;;;;;;;8.10;99.90;;;7.80;100.00;95592.44;4989416;28;1394;-80
2023/03/09 03:49:46;;;;;;;;;;;8.00;99.90;;;7.92;100.00;95571.03;4994422;28;1879;-80
2023/03/09 03:52:13;;;;;;;;;;;8.10;99.90;;;7.80;100.00;95592.44;4992966;28;1656;-80
2023/03/09 03:54:39;;;;;;;;;;;8.00;99.90;;;7.88;100.00;95585.06;4994334;28;1492;-80
2023/03/09 03:57:07;;;;;;;;;;;8.10;99.90;;;7.81;100.00;95589.78;4993607;28;1750;-79
2023/03/09 03:59:35;;;;;;;;;;;8.00;99.90;;;7.84;100.00;95610.22;4990045;28;1627;-79
2023/03/09 04:02:02;;;;;;;;;;;8.00;99.90;;;7.87;100.00;95609.22;4991363;28;1423;-79
2023/03/09 04:04:29;;;;;;;;;;;8.00;99.90;;;7.84;100.00;95620.56;4988544;28;1481;-79
2023/03/09 04:06:56;;;;;;;;;;;8.00;99.90;;;7.90;100.00;95601.28;4992729;28;1490;-79
2023/03/09 04:09:23;;;;;;;;;;;8.10;99.90;;;7.79;100.00;95625.19;4994838;28;1907;-79
2023/03/09 04:11:52;;;;;;;;;;;8.10;99.90;;;7.80;100.00;95611.38;4979124;28;1652;-78
2023/03/09 04:14:18;;;;;;;;;;;8.00;99.90;;;7.85;100.00;95618.84;4994052;28;1647;-78
2023/03/09 04:16:45;;;;;;;;;;;8.10;99.90;;;7.78;100.00;95661.44;4989710;28;1803;-79
2023/03/09 04:19:12;;;;;;;;;;;8.10;99.90;;;7.77;100.00;95627.03;4977555;28;1534;-80
2023/03/09 04:21:39;;;;;;;;;;;8.10;99.90;;;7.74;100.00;95622.09;4988909;28;1631;-79
2023/03/09 04:24:06;;;;;;;;;;;8.10;99.90;;;7.73;100.00;95638.47;4989480;28;1323;-79
2023/03/09 04:26:34;;;;;;;;;;;8.10;99.90;;;7.72;100.00;95644.59;4991681;28;1434;-79
2023/03/09 04:29:02;;;;;;;;;;;8.10;99.90;;;7.69;100.00;95639.63;4985838;28;2001;-79
2023/03/09 04:31:28;;;;;;;;;;;8.10;99.90;;;7.79;100.00;95639.88;4988122;28;1450;-79
2023/03/09 04:33:56;;;;;;;;;;;8.10;99.90;;;7.77;100.00;95636.56;4990351;28;1507;-79
2023/03/09 04:36:23;;;;;;;;;;;8.20;99.90;;;7.72;100.00;95663.47;4988697;28;1581;-80
2023/03/09 04:38:50;;;;;;;;;;;8.10;99.90;;;7.79;100.00;95657.94;4974765;28;1437;-80
2023/03/09 04:41:17;;;;;;;;;;;8.20;99.90;;;7.84;100.00;95659.31;4972201;28;1633;-79
2023/03/09 04:43:46;;;;;;;;;;;8.20;99.90;;;7.74;100.00;95664.22;4989158;28;1440;-79
2023/03/09 04:46:14;;;;;;;;;;;8.20;99.90;;;7.78;100.00;95682.94;4974784;28;1542;-80
2023/03/09 04:48:41;;;;;;;;;;;8.20;99.90;;;7.80;100.00;95678.53;5001812;28;1941;-79
2023/03/09 04:51:10;;;;;;;;;;;8.30;99.90;;;7.86;100.00;95685.88;4988033;28;1382;-79
2023/03/09 04:53:37;;;;;;;;;;;8.30;99.90;;;7.94;100.00;95677.66;4989230;28;1447;-80
2023/03/09 04:56:04;;;;;;;;;;;8.30;99.90;;;8.02;100.00;95674.59;4973181;28;1513;-79
2023/03/09 04:58:31;;;;;;;;;;;8.30;99.90;;;7.94;100.00;95685.41;4987734;28;1455;-79
2023/03/09 05:01:00;;;;;;;;;;;8.20;99.90;;;7.81;100.00;95669.84;4991737;28;1468;-79
2023/03/09 05:03:29;;;;;;;;;;;8.30;99.90;;;7.81;100.00;95656.09;4991270;28;1510;-79
2023/03/09 05:05:56;;;;;;;;;;;8.20;99.90;;;7.88;100.00;95667.72;4977004;28;1675;-79
2023/03/09 05:08:25;;;;;;;;;;;8.20;99.90;;;7.80;100.00;95675.94;4977400;28;1567;-79
2023/03/09 05:10:52;;;;;;;;;;;8.10;99.90;;;7.88;100.00;95680.63;4989055;28;1887;-79
2023/03/09 05:13:20;;;;;;;;;;;8.10;99.90;;;7.86;100.00;95680.72;4984993;28;1652;-78
2023/03/09 05:15:48;;;;;;;;;;;8.20;99.90;;;7.75;100.00;95696.88;4986671;28;1601;-79
2023/03/09 05:18:15;;;;;;;;;;;8.20;99.90;;;7.69;100.00;95701.59;4990105;28;1605;-80
2023/03/09 05:20:42;;;;;;;;;;;8.10;99.90;;;7.72;100.00;95686.72;4990763;28;1430;-79
2023/03/09 05:23:09;;;;;;;;;;;8.10;99.90;;;7.71;100.00;95715.25;4972101;28;1544;-79
2023/03/09 05:25:36;;;;;;;;;;;8.10;99.90;;;7.80;100.00;95691.44;4989869;28;1422;-79
2023/03/09 05:28:07;;;;;;;;;;;8.00;99.90;;;7.68;100.00;95720.56;4989357;28;1578;-80
2023/03/09 05:30:34;;;;;;;;;;;8.00;99.90;;;7.73;100.00;95724.56;4991336;28;1985;-79
2023/03/09 05:33:01;;;;;;;;;;;8.00;99.90;;;7.61;100.00;95727.03;4988836;28;1616;-79
2023/03/09 05:35:30;;;;;;;;;;;8.00;99.90;;;7.60;100.00;95746.88;4991124;28;1571;-79
2023/03/09 05:37:57;;;;;;;;;;;8.00;99.90;;;7.56;100.00;95719.56;4992706;28;1518;-79
2023/03/09 05:40:24;;;;;;;;;;;7.90;99.90;;;7.71;100.00;95748.81;4986944;28;1501;-80
2023/03/09 05:42:51;;;;;;;;;;;7.90;99.90;;;7.75;100.00;95747.69;4989353;28;1499;-79
2023/03/09 05:45:18;;;;;;;;;;;7.80;99.90;;;7.73;100.00;95763.28;4990853;28;1389;-79
2023/03/09 05:47:44;;;;;;;;;;;7.90;99.90;;;7.74;100.00;95751.22;4989608;28;1419;-80
2023/03/09 05:50:13;;;;;;;;;;;7.90;99.90;;;7.69;100.00;95748.91;4988312;28;1995;-79
2023/03/09 05:52:40;;;;;;;;;;;7.90;99.90;;;7.68;100.00;95765.31;4993256;28;1547;-79
2023/03/09 05:55:07;;;;;;;;;;;7.90;99.90;;;7.63;100.00;95782.84;4989865;28;1573;-80
2023/03/09 05:57:35;;;;;;;;;;;7.80;99.90;;;7.61;100.00;95776.94;4990525;28;1447;-79
2023/03/09 06:00:03;;;;;;;;;;;7.90;99.90;;;7.66;100.00;95785.25;4988301;28;1448;-80
2023/03/09 06:02:30;;;;;;;;;;;7.80;99.90;;;7.58;100.00;95804.69;4993586;28;1619;-79
2023/03/09 06:04:58;;;;;;;;;;;7.80;99.90;;;7.62;100.00;95788.94;4987751;28;1668;-80
2023/03/09 06:07:28;;;;;;;;;;;7.90;99.90;;;7.69;100.00;95774.72;4991762;28;1546;-80
2023/03/09 06:09:55;;;;;;;;;;;7.90;99.90;;;7.67;100.00;95789.47;5006696;28;1910;-80
2023/03/09 06:12:22;;;;;;;;;;;7.80;99.90;;;7.65;100.00;95801.66;4991175;28;1319;-80
2023/03/09 06:14:51;;;;;;;;;;;7.80;99.90;;;7.68;100.00;95785.13;4992079;28;1778;-79
2023/03/09 06:17:18;;;;;;;;;;;7.80;99.90;;;7.70;100.00;95806.53;4986114;28;1620;-78
2023/03/09 06:19:45;;;;;;;;;;;7.90;99.90;;;7.71;100.00;95819.38;4984734;28;1603;-79
2023/03/09 06:22:12;;;;;;;;;;;7.80;99.90;;;7.68;100.00;95845.34;4987230;28;1790;-79
2023/03/09 06:24:39;;;;;;;;;;;7.90;99.90;;;7.66;100.00;95844.66;4991834;28;1618;-80
2023/03/09 06:27:06;;;;;;;;;;;7.90;99.90;;;7.70;100.00;95838.34;4995370;28;1804;-80
2023/03/09 06:29:34;;;;;;;;;;;8.00;99.90;;;7.69;100.00;95865.09;4991869;28;1883;-79
2023/03/09 06:32:04;;;;;;;;;;;8.00;99.90;;;7.79;100.00;95838.75;4992328;28;1804;-78
2023/03/09 06:34:31;;;;;;;;;;;7.90;99.90;;;7.79;100.00;95831.00;4991590;28;1544;-80
2023/03/09 06:37:00;;;;;;;;;;;7.90;99.90;;;7.81;100.00;95835.16;4988203;28;1552;-79
2023/03/09 06:39:27;;;;;;;;;;;7.90;99.90;;;7.82;100.00;95838.56;4989508;28;1673;-80
2023/03/09 06:41:54;;;;;;;;;;;7.90;99.90;;;7.78;100.00;95847.41;4991506;28;1589;-79
2023/03/09 06:44:21;;;;;;;;;;;7.90;99.90;;;7.83;100.00;95853.16;4989092;28;1637;-79
2023/03/09 06:46:48;;;;;;;;;;;7.90;99.90;;;7.76;100.00;95870.75;4989882;28;1585;-80
2023/03/09 06:49:15;;;;;;;;;;;7.90;99.90;;;7.77;100.00;95864.66;4987750;28;2027;-79
2023/03/09 06:51:42;;;;;;;;;;;7.90;99.90;;;7.80;100.00;95885.16;4986371;28;1574;-79
2023/03/09 06:54:09;;;;;;;;;;;7.90;99.90;;;7.72;100.00;95893.31;4988172;28;1811;-80
2023/03/09 06:56:36;;;;;;;;;;;8.00;99.90;;;7.73;100.00;95894.16;4974729;28;1617;-79
2023/03/09 06:59:03;;;;;;;;;;;8.00;99.90;;;7.68;100.00;95904.75;4988167;28;1590;-80
2023/03/09 07:01:30;;;;;;;;;;;8.00;99.90;;;7.74;100.00;95890.66;4989592;28;1639;-80
2023/03/09 07:03:57;;;;;;;;;;;8.00;99.90;;;7.78;100.00;95914.53;4989254;28;1362;-79
2023/03/09 07:06:24;;;;;;;;;;;8.00;99.90;;;7.75;100.00;95900.91;4986060;28;1319;-80
2023/03/09 07:08:51;;;;;;;;;;;8.00;99.90;;;7.61;100.00;95910.38;4970143;28;1331;-80
2023/03/09 07:11:18;;;;;;;;;;;8.00;99.90;;;7.70;100.00;95940.81;4970444;28;1995;-80
2023/03/09 07:13:46;;;;;;;;;;;8.00;99.90;;;7.75;100.00;95931.06;4971806;28;1422;-80
2023/03/09 07:16:13;;;;;;;;;;;8.00;99.90;;;7.86;100.00;95927.88;4990748;28;1528;-79
2023/03/09 07:18:40;;;;;;;;;;;8.00;99.90;;;7.83;100.00;95952.13;4973319;28;1652;-80
2023/03/09 07:21:09;;;;;;;;;;;8.10;99.90;;;7.96;100.00;95960.84;4989795;28;1588;-80
2023/03/09 07:23:36;;;;;;;;;;;8.10;99.90;;;7.92;100.00;95963.69;5002900;28;1557;-79
2023/03/09 07:26:04;;;;;;;;;;;8.10;99.90;;;7.99;100.00;95941.72;4986793;28;1644;-80
2023/03/09 07:28:32;;;;;;;;;;;8.10;99.90;;;7.96;100.00;95942.75;4986093;28;1585;-80
2023/03/09 07:31:08;;;;;;;;;;;8.10;99.90;;;7.91;100.00;95955.09;4969428;28;1950;-79
2023/03/09 07:33:35;;;;;;;;;;;8.10;99.90;;;8.04;100.00;95957.78;4986846;28;1642;-79
2023/03/09 07:36:07;;;;;;;;;;;8.20;99.90;;;8.02;100.00;95966.56;4972830;28;1814;-79
2023/03/09 07:38:34;;;;;;;;;;;8.10;99.90;;;7.96;100.00;95976.34;4988568;28;1997;-79
2023/03/09 07:41:02;;;;;;;;;;;8.10;99.90;;;8.02;100.00;95977.72;4985364;28;1622;-79
2023/03/09 07:43:29;;;;;;;;;;;8.30;99.90;;;7.96;100.00;95972.94;4987274;28;1599;-79
2023/03/09 07:45:56;;;;;;;;;;;8.30;99.90;;;7.97;100.00;95965.06;4992136;28;1707;-79
2023/03/09 07:48:23;;;;;;;;;;;8.40;99.90;;;8.10;100.00;95972.13;4992216;28;1406;-79
2023/03/09 07:50:57;;;;;;;;;;;8.50;99.90;;;8.10;100.00;95990.22;4990663;28;1960;-78
2023/03/09 07:53:24;;;;;;;;;;;8.40;99.90;;;8.00;100.00;95986.47;4988736;28;1529;-79
2023/03/09 07:56:00;;;;;;;;;;;8.50;99.90;;;7.97;100.00;95972.00;4992602;28;1487;-79
2023/03/09 07:58:27;;;;;;;;;;;8.40;99.90;;;7.94;100.00;95991.09;5007556;28;1363;-79
2023/03/09 08:00:54;;;;;;;;;;;8.40;99.90;;;7.96;100.00;96012.50;4991287;28;1617;-79
2023/03/09 08:03:22;;;;;;;;;;;8.40;99.90;;;7.84;100.00;96004.59;4993070;28;1487;-79
2023/03/09 08:05:49;;;;;;;;;;;8.50;99.90;;;7.93;100.00;95997.16;4989725;28;1536;-80
2023/03/09 08:08:16;;;;;;;;;;;8.40;99.90;;;7.98;100.00;96012.41;5002525;28;1592;-79
2023/03/09 08:10:47;;;;;;;;;;;8.40;99.90;;;8.12;100.00;96024.56;4988787;28;1887;-79
2023/03/09 08:13:15;;;;;;;;;;;8.30;99.90;;;8.16;100.00;96005.34;4987723;28;1475;-79
2023/03/09 08:15:42;;;;;;;;;;;8.30;99.90;;;8.16;100.00;96013.09;4992246;28;1471;-79
2023/03/09 08:18:09;;;;;;;;;;;8.30;99.90;;;8.16;100.00;96023.44;4992261;28;1570;-79
2023/03/09 08:20:37;;;;;;;;;;;8.40;99.90;;;8.18;100.00;96024.19;4991223;28;1666;-79
2023/03/09 08:23:05;;;;;;;;;;;8.40;99.90;;;8.14;100.00;96023.53;4992371;28;1565;-79
2023/03/09 08:25:32;;;;;;;;;;;8.50;99.90;;;8.28;100.00;96007.22;4989794;28;1402;-79
2023/03/09 08:27:59;;;;;;;;;;;8.40;99.90;;;8.23;100.00;96027.31;4991561;28;1430;-79
2023/03/09 08:30:27;;;;;;;;;;;8.50;99.90;;;8.29;100.00;96005.47;4992397;28;1985;-79
2023/03/09 08:32:54;;;;;;;;;;;8.50;99.90;;;8.26;100.00;96036.69;4991539;28;1441;-79
2023/03/09 08:35:24;;;;;;;;;;;8.80;99.90;;;8.36;100.00;96036.03;4988188;28;1550;-79
2023/03/09 08:37:51;;;;;;;;;;;8.80;99.90;;;8.35;100.00;96062.00;4995115;28;1682;-79
2023/03/09 08:40:19;;;;;;;;;;;8.90;99.90;;;8.43;100.00;96044.28;4991020;28;1460;-80
2023/03/09 08:42:46;;;;;;;;;;;8.80;99.90;;;8.37;100.00;96057.56;4975128;28;1657;-79
2023/03/09 08:45:13;;;;;;;;;;;8.90;99.90;;;8.45;100.00;96049.38;4976763;28;1589;-79
2023/03/09 08:47:43;;;;;;;;;;;8.90;99.90;;;8.63;100.00;96042.31;4992049;28;1846;-79
2023/03/09 08:50:10;;;;;;;;;;;8.80;99.90;;;8.51;100.00;96059.38;5004730;28;1910;-79
2023/03/09 08:52:39;;;;;;;;;;;8.90;99.90;;;8.64;100.00;96034.44;4995225;28;1709;-79
2023/03/09 08:55:08;;;;;;;;;;;8.90;99.90;;;8.49;100.00;96058.63;4998827;28;1582;-78
2023/03/09 08:57:36;;;;;;;;;;;8.90;99.90;;;8.43;100.00;96069.31;4989613;28;1369;-80
2023/03/09 09:00:05;;;;;;;;;;;8.90;99.90;;;8.42;100.00;96065.91;4993151;28;1450;-79
2023/03/09 09:02:32;;;;;;;;;;;8.90;99.90;;;8.46;100.00;96056.22;4994302;28;1619;-79
2023/03/09 09:04:59;;;;;;;;;;;9.00;99.90;;;8.43;100.00;96059.81;4977799;28;1675;-79
2023/03/09 09:07:29;;;;;;;;;;;8.90;99.90;;;8.58;100.00;96068.44;4991133;28;1559;-79
2023/03/09 09:09:58;;;;;;;;;;;9.00;99.90;;;8.50;100.00;96079.22;4987126;28;1902;-79
2023/03/09 09:12:32;;;;;;;;;;;9.00;99.90;;;8.47;100.00;96087.16;4979702;28;1418;-79
2023/03/09 09:14:59;;;;;;;;;;;9.10;99.90;;;8.66;100.00;96073.97;4987959;28;1587;-79
2023/03/09 09:17:25;;;;;;;;;;;9.10;99.90;;;8.75;100.00;96047.56;4987387;28;1514;-79
2023/03/09 09:19:52;;;;;;;;;;;9.10;99.90;;;8.73;100.00;96077.84;4988587;28;1466;-79
2023/03/09 09:22:21;;;;;;;;;;;9.20;99.90;;;8.77;100.00;96056.06;4992216;28;1981;-79
2023/03/09 09:24:49;;;;;;;;;;;9.30;99.90;;;8.82;100.00;96060.13;4990694;28;1647;-79
2023/03/09 09:27:16;;;;;;;;;;;9.60;99.90;;;8.93;100.00;96073.25;4978715;28;1415;-79
2023/03/09 09:29:43;;;;;;;;;;;9.50;99.90;;;9.05;100.00;96067.34;4990675;28;1998;-79
2023/03/09 09:32:09;;;;;;;;;;;9.50;99.90;;;9.03;100.00;96068.34;4985108;28;1342;-79
2023/03/09 09:34:37;;;;;;;;;;;9.60;99.90;;;8.87;100.00;96069.31;4989466;28;1401;-80
2023/03/09 09:37:05;;;;;;;;;;;9.60;99.90;;;8.83;100.00;96060.06;4988435;28;1373;-79
2023/03/09 09:39:32;;;;;;;;;;;9.50;99.90;;;8.81;100.00;96095.53;4986938;28;1357;-79
2023/03/09 09:42:05;;;;;;;;;;;9.40;99.90;;;8.95;100.00;96051.53;4990701;28;1222;-80
2023/03/09 09:44:40;;;;;;;;;;;9.30;99.90;;;8.74;100.00;96091.66;4989462;28;1266;-79
2023/03/09 09:47:12;;;;;;;;;;;9.30;99.90;;;8.85;100.00;96078.06;4988801;28;1050;-79
2023/03/09 09:49:47;;;;;;;;;;;9.20;99.90;;;8.81;100.00;96087.78;4992241;28;1491;-79
2023/03/09 09:52:32;;;;;;;;;;;9.10;99.90;;;8.80;100.00;96096.44;4990305;28;1166;-79
2023/03/09 09:55:22;;;;;;;;;;;9.20;99.90;;;8.99;100.00;96081.50;4986156;28;1398;-79
2023/03/09 09:58:00;;;;;;;;;;;9.20;99.90;;;8.95;100.00;96081.78;4986078;28;1394;-79
2023/03/09 10:00:35;;;;;;;;;;;9.30;99.90;;;8.66;100.00;96106.78;4988169;28;1469;-79
2023/03/09 10:03:18;;;;;;;;;;;9.30;99.90;;;8.64;100.00;96137.06;4990981;28;1348;-80
2023/03/09 10:05:50;;;;;;;;;;;9.30;99.90;;;8.93;100.00;96125.03;4993468;28;1041;-79
2023/03/09 10:08:25;;;;;;;;;;;9.30;99.90;;;8.71;100.00;96139.22;4992059;28;1479;-79
2023/03/09 10:10:54;;;;;;;;;;;9.20;99.90;;;8.71;100.00;96141.81;4968902;28;1883;-79
2023/03/09 10:13:30;;;;;;;;;;;9.20;99.90;;;8.67;100.00;96162.78;4990355;28;1499;-79
2023/03/09 10:16:03;;;;;;;;;;;9.20;99.90;;;8.59;100.00;96168.38;4988487;28;1548;-79
2023/03/09 10:18:42;;;;;;;;;;;9.20;99.90;;;8.65;100.00;96168.03;5002448;28;1407;-79
2023/03/09 10:21:17;;;;;;;;;;;9.20;99.90;;;8.86;100.00;96173.72;4975255;28;1658;-79
2023/03/09 10:23:44;;;;;;;;;;;9.30;99.90;;;8.88;100.00;96181.38;4989797;28;1756;-79
2023/03/09 10:26:29;;;;;;;;;;;9.30;99.90;;;8.92;100.00;96199.25;4984758;28;1774;-79
2023/03/09 10:29:02;;;;;;;;;;;9.40;99.90;;;9.33;100.00;96177.84;4990008;28;1659;-79
2023/03/09 10:31:53;;;;;;;;;;;9.60;99.90;;;9.41;100.00;96179.97;4995259;28;1964;-80
2023/03/09 10:34:25;;;;;;;;;;;9.60;99.90;;;9.20;100.00;96185.50;4993338;28;1505;-79
2023/03/09 10:36:57;;;;;;;;;;;9.70;99.90;;;9.47;100.00;96169.25;4990934;28;1665;-80
2023/03/09 10:39:25;;;;;;;;;;;9.90;99.90;;;9.37;100.00;96189.69;4972804;28;1895;-80
2023/03/09 10:41:55;;;;;;;;;;;9.90;99.90;;;9.45;100.00;96184.03;4968333;28;1802;-80
2023/03/09 10:44:23;;;;;;;;;;;9.90;99.90;;;9.40;100.00;96173.13;4989140;28;1899;-80
2023/03/09 10:46:59;;;;;;;;;;;9.90;99.90;;;9.41;100.00;96174.78;4971241;28;1620;-80
2023/03/09 10:49:29;;;;;;;;;;;9.90;99.90;;;9.20;100.00;96167.38;5002409;28;1636;-80
2023/03/09 10:52:05;;;;;;;;;;;9.80;99.90;;;9.10;100.00;96175.78;4984863;28;1879;-80
2023/03/09 10:54:40;;;;;;;;;;;9.70;99.90;;;9.00;100.00;96191.84;4983886;28;1524;-80
2023/03/09 10:57:33;;;;;;;;;;;9.70;99.90;;;9.24;100.00;96196.53;5003490;28;1519;-80
2023/03/09 11:00:11;;;;;;;;;;;9.70;99.90;;;9.23;100.00;96212.97;4982178;28;1555;-80
2023/03/09 11:02:41;;;;;;;;;;;9.80;99.90;;;9.17;100.00;96210.75;4990230;28;1617;-80
2023/03/09 11:05:27;;;;;;;;;;;10.00;99.90;;;9.17;100.00;96219.34;4978684;28;1847;-80
2023/03/09 11:07:56;;;;;;;;;;;10.00;99.90;;;9.26;100.00;96225.75;4973548;28;1425;-80
2023/03/09 11:10:31;;;;;;;;;;;10.20;99.90;;;9.47;100.00;96227.97;5004065;28;1910;-80
2023/03/09 11:13:00;;;;;;;;;;;10.20;99.90;;;9.61;100.00;96218.44;5000643;28;1451;-80
2023/03/09 11:15:30;;;;;;;;;;;10.40;99.90;;;9.91;100.00;96230.47;5000030;28;1500;-79
2023/03/09 11:17:59;;;;;;;;;;;10.90;99.90;;;9.93;100.00;96225.19;4989109;28;1452;-79
2023/03/09 11:20:39;;;;;;;;;;;11.10;99.90;;;10.08;100.00;96220.81;4986081;28;1447;-79
2023/03/09 11:23:09;;;;;;;;;;;11.20;99.90;;;10.04;100.00;96228.78;4990775;28;1698;-80
2023/03/09 11:26:04;;;;;;;;;;;11.00;99.90;;;9.97;100.00;96219.72;4988809;28;1614;-80
2023/03/09 11:28:52;;;;;;;;;;;11.00;99.90;;;9.91;100.00;96198.53;4992877;28;1424;-79
2023/03/09 11:31:22;;;;;;;;;;;10.90;99.90;;;9.79;100.00;96202.72;4989545;28;1895;-78
2023/03/09 11:33:52;;;;;;;;;;;10.80;99.90;;;9.48;100.00;96207.16;4989869;28;1562;-79
2023/03/09 11:36:23;;;;;;;;;;;10.40;99.90;;;9.34;100.00;96213.16;4980691;28;1549;-79
2023/03/09 11:38:50;;;;;;;;;;;10.30;99.90;;;9.46;100.00;96206.41;5004995;28;1582;-79
2023/03/09 11:41:24;;;;;;;;;;;10.10;99.90;;;9.44;100.00;96208.25;4991112;28;1586;-79
2023/03/09 11:43:56;;;;;;;;;;;9.80;99.90;;;9.16;100.00;96229.78;4991119;28;1420;-79